Terminal Aerodrome Forecast
Issued by NWS

Home | Current Version | Previous Version | Text Only | Print | Product List | Glossary On
Versions: 1 2 3 4 5 6 7 8 9 10 11 12 13 14 15 16
000
FTUS46 KMTR 261128
TAFSJC
TAF
KSJC 261128Z 2612/2712 12008KT P6SM OVC011
     FM261300 VRB03KT P6SM OVC010
     FM261730 VRB03KT P6SM FEW015
     FM262000 30010KT P6SM SKC
     FM271000 13006KT P6SM OVC008=

USA.gov is the U.S. government's official web portal to all federal, state and local government web resources and services.